Aérodrome :
LOGIN :

S'inscrire | Disclaimer

   EN    FR    IT 

 










Légende :    VFR   VFR Marginal   IFR   IFR Intensif   IFR Très Intensif
Visi : 
Plafond : 
>= 8 km
>= 3000ft
5 à 8 km
1000 à 3000 ft
1500m à 5 km
500 à 1000 ft
800 à 1500m
200 à 500 ft
< 800m
< 200 ft
Symboles :   Orages  Brouillard  Fortes neiges  Fortes précipitations  Vent > 20 kt
SIGMETs :   Divers  Orages  Givrage  Turbulence  Onde Orograph.  Cendres Volcan.







- Altitude de l'aérodrome : 46 ft
- Code IATA : SNN


EINN - Shannon

DERNIER METAR :
  • 111230Z 14018KT 9999 FEW012 SCT017 BKN037 11/08 Q1013 NOSIG

METARs EXPIRÉS :
  • 111200Z 13019KT 9999 FEW009 SCT014 BKN035 11/08 Q1014 NOSIG
  • 111130Z 13016KT 9999 FEW009 SCT011 BKN013 10/08 Q1014 NOSIG
  • 111100Z 14020KT 9999 FEW010 BKN013 10/08 Q1014 NOSIG
  • 111030Z 14018KT 9999 FEW010 BKN013 10/08 Q1015 NOSIG
  • 111000Z 13022KT 9999 FEW010 BKN013 10/08 Q1015 NOSIG

TAF TAF EINN
Valide du 11 à 12h jusqu'au 12 à 12h UTC


111100Z 1112/1212 15015KT 9999 FEW012 BKN020
TEMPO 1112/1116 15018G30KT -DZ BKN012
PROB30
TEMPO 1112/1116 BKN008
TEMPO 1116/1120 4000 RA BKN007 SCT018CB
BECMG 1117/1120 30007KT
TEMPO 1120/1124 4000 BR
BECMG 1122/1201 23005KT
PROB30
TEMPO 1122/1124 2000 BKN005
TEMPO 1200/1209 0200 FG BKN001
BECMG 1202/1205 13008KT
Pas de NOTAMs connus pour ce terrain.



MET'MAP, la Météo Aéronautique d'un coup d'oeil ! - Copyright ORBIFLY Décembre 2007 - Disclaimer

ORBIFLY MET'MAP TEAM :

Programmation & Développement : Alexandra Zaïnal
Conception & Développement : Baudouin d'Aumeries
Co-Programmation & Développement : Marc-Olivier Méhu
Soutien technique & logistique : Manuel Goepfert

Contact : metmap@orbifly.com




SOURCES & CREDITS :

   NOAA